Terminal Aerodrome Forecast
Issued by NWS Paducah, KY

Home | Current Version | Previous Version | Text Only | Print | Product List | Glossary Off
Versions: 1 2 3 4 5 6 7 8 9 10 11 12 13 14 15 16 17 18 19

523
FTUS43 KPAH 211418 AAC
TAFPAH
TAF AMD
KPAH 211418Z 2114/2212 22005KT P6SM FEW250
     FM211500 19008KT P6SM FEW035
     FM220100 15004KT P6SM SKC=

USA.gov is the U.S. government's official web portal to all federal, state and local government web resources and services.